Time;durP1;ratioP1;P1;durP2;ratioP2;P2;SDS_P1;SDS_P2;PMS_P1;PMS_P2;Temp;Humidity;BMP_temperature;BMP_pressure;BME280_temperature;BME280_humidity;BME280_pressure;Samples;Min_cycle;Max_cycle;Signal;HPM_P1;HPM_P2
2021/09/22 00:02:49;;;;;;;10.33;6.70;;;11.40;98.10;;;;;;8294411;28;20228;-78
2021/09/22 00:06:50;;;;;;;10.80;7.20;;;11.40;98.20;;;;;;8295173;28;20638;-76
2021/09/22 00:10:50;;;;;;;10.87;7.63;;;11.30;98.20;;;;;;8296383;28;20428;-77
2021/09/22 00:14:51;;;;;;;29.43;9.50;;;11.30;98.20;;;;;;8295945;28;20646;-77
2021/09/22 00:18:52;;;;;;;12.70;8.50;;;11.30;98.20;;;;;;8265343;28;20666;-77
2021/09/22 00:22:55;;;;;;;12.47;8.20;;;11.20;98.20;;;;;;8286662;28;20441;-76
2021/09/22 00:26:56;;;;;;;12.90;8.53;;;11.20;98.40;;;;;;8278348;28;20178;-76
2021/09/22 00:30:57;;;;;;;17.20;7.53;;;11.20;98.50;;;;;;8278413;28;20791;-78
2021/09/22 00:34:57;;;;;;;9.40;8.10;;;11.10;98.60;;;;;;8298866;28;20173;-79
2021/09/22 00:38:58;;;;;;;8.17;7.17;;;11.10;98.70;;;;;;8266834;28;20622;-78
2021/09/22 00:42:59;;;;;;;12.97;10.00;;;11.10;98.80;;;;;;8288312;28;20180;-78
2021/09/22 00:47:00;;;;;;;12.20;8.30;;;11.10;98.80;;;;;;8291785;28;20427;-77
2021/09/22 00:51:03;;;;;;;12.43;8.33;;;11.10;98.90;;;;;;8308077;28;20505;-78
2021/09/22 00:55:05;;;;;;;12.10;8.67;;;11.10;98.90;;;;;;8293254;28;20184;-77
2021/09/22 00:59:06;;;;;;;15.80;9.60;;;11.10;99.00;;;;;;8296094;28;20463;-76
2021/09/22 01:03:07;;;;;;;13.73;9.03;;;11.10;99.00;;;;;;8281174;28;20603;-77
2021/09/22 01:07:09;;;;;;;12.53;8.53;;;11.00;99.00;;;;;;8299262;28;20181;-77
2021/09/22 01:11:10;;;;;;;16.03;8.93;;;11.00;99.00;;;;;;8283900;28;20446;-77
2021/09/22 01:15:27;;;;;;;15.03;9.10;;;11.00;99.10;;;;;;8301468;28;20412;-77
2021/09/22 01:19:27;;;;;;;13.53;8.77;;;11.00;99.20;;;;;;8283562;28;20645;-77
2021/09/22 01:23:28;;;;;;;13.03;8.70;;;10.90;99.00;;;;;;8282038;28;20431;-77
2021/09/22 01:27:31;;;;;;;17.67;10.77;;;10.90;99.10;;;;;;8280229;28;20176;-77
2021/09/22 01:31:37;;;;;;;12.90;8.67;;;10.90;99.10;;;;;;8297232;28;20428;-77
2021/09/22 01:35:41;;;;;;;17.53;9.67;;;10.90;99.10;;;;;;8280845;28;20515;-77
2021/09/22 01:39:43;;;;;;;11.13;8.70;;;10.80;99.20;;;;;;8302914;28;20467;-77
2021/09/22 01:43:43;;;;;;;17.17;10.57;;;10.80;99.20;;;;;;8303786;28;20510;-77
2021/09/22 01:47:44;;;;;;;12.23;9.10;;;10.80;99.30;;;;;;8302988;28;20416;-77
2021/09/22 01:51:44;;;;;;;13.33;9.23;;;10.80;99.30;;;;;;8303540;28;20180;-77
2021/09/22 01:55:45;;;;;;;19.00;10.70;;;10.80;99.30;;;;;;8303160;28;20169;-77
2021/09/22 01:59:46;;;;;;;15.80;10.30;;;10.80;99.40;;;;;;8302006;28;20299;-76
2021/09/22 02:03:47;;;;;;;21.70;9.83;;;10.80;99.40;;;;;;8304684;28;20374;-77
2021/09/22 02:07:48;;;;;;;24.37;9.30;;;10.80;99.60;;;;;;8303421;28;20264;-77
2021/09/22 02:11:49;;;;;;;17.33;10.33;;;10.80;99.30;;;;;;8302719;28;20427;-77
2021/09/22 02:15:49;;;;;;;16.17;11.10;;;10.80;99.30;;;;;;8285616;28;20180;-77
2021/09/22 02:19:51;;;;;;;15.70;10.80;;;10.70;99.30;;;;;;8301332;28;20204;-77
2021/09/22 02:23:52;;;;;;;15.73;10.63;;;10.80;99.40;;;;;;8302459;28;20178;-77
2021/09/22 02:27:53;;;;;;;17.00;10.63;;;10.70;99.40;;;;;;8286413;28;20427;-77
2021/09/22 02:31:53;;;;;;;15.60;11.00;;;10.70;99.40;;;;;;8304809;28;20225;-77
2021/09/22 02:35:54;;;;;;;19.80;11.70;;;10.70;99.40;;;;;;8301111;28;20189;-77
2021/09/22 02:39:55;;;;;;;16.67;10.70;;;10.70;99.40;;;;;;8284691;28;20314;-77
2021/09/22 02:43:57;;;;;;;20.87;11.53;;;10.70;99.50;;;;;;8302510;28;20215;-77
2021/09/22 02:47:57;;;;;;;19.73;12.70;;;10.60;99.40;;;;;;8301863;28;20420;-77
2021/09/22 02:51:58;;;;;;;18.53;11.00;;;10.70;99.50;;;;;;8301644;28;20915;-77
2021/09/22 02:55:59;;;;;;;18.03;9.90;;;10.60;99.40;;;;;;8304744;28;20211;-77
2021/09/22 03:00:02;;;;;;;17.27;12.27;;;10.70;99.40;;;;;;8304283;28;20262;-77
2021/09/22 03:04:02;;;;;;;20.43;12.40;;;10.60;99.30;;;;;;8305337;28;20224;-77
2021/09/22 03:08:03;;;;;;;15.17;10.80;;;10.60;99.30;;;;;;8303584;28;20776;-77
2021/09/22 03:12:04;;;;;;;15.03;10.30;;;10.60;99.40;;;;;;8302094;28;20248;-77
2021/09/22 03:16:07;;;;;;;16.60;10.57;;;10.50;99.40;;;;;;8300215;28;20238;-77
2021/09/22 03:20:08;;;;;;;24.40;11.40;;;10.50;99.40;;;;;;8299601;28;20216;-77
2021/09/22 03:24:09;;;;;;;16.47;10.07;;;10.50;99.60;;;;;;8300660;28;20506;-77
2021/09/22 03:28:09;;;;;;;17.27;11.87;;;10.50;99.50;;;;;;8299972;28;20428;-77
2021/09/22 03:32:10;;;;;;;21.10;11.30;;;10.50;99.50;;;;;;8302507;28;20181;-76
2021/09/22 03:36:11;;;;;;;21.33;12.03;;;10.40;99.50;;;;;;8300637;28;20624;-77
2021/09/22 03:40:12;;;;;;;17.03;9.90;;;10.40;99.60;;;;;;8300638;28;20561;-77
2021/09/22 03:44:13;;;;;;;20.37;9.87;;;10.40;99.60;;;;;;8300063;28;20169;-77
2021/09/22 03:48:13;;;;;;;19.40;11.03;;;10.30;99.60;;;;;;8300350;28;20887;-77
2021/09/22 03:52:14;;;;;;;13.00;10.23;;;10.30;99.60;;;;;;8300634;28;20180;-77
2021/09/22 03:56:15;;;;;;;13.87;10.37;;;10.30;99.70;;;;;;8283091;28;20184;-77
2021/09/22 04:00:16;;;;;;;16.30;10.03;;;10.20;99.80;;;;;;8299203;28;20207;-77
2021/09/22 04:04:16;;;;;;;20.17;9.60;;;10.20;99.80;;;;;;8282195;28;20228;-77
2021/09/22 04:08:17;;;;;;;13.50;8.60;;;10.10;99.80;;;;;;8300191;28;20435;-77
2021/09/22 04:12:18;;;;;;;11.40;9.73;;;10.10;99.80;;;;;;8301086;28;20187;-77
2021/09/22 04:16:18;;;;;;;16.70;10.43;;;10.10;99.70;;;;;;8301991;28;20208;-77
2021/09/22 04:20:19;;;;;;;13.20;8.37;;;10.00;99.70;;;;;;8298962;28;20652;-77
2021/09/22 04:24:20;;;;;;;16.90;10.47;;;10.00;99.80;;;;;;8302166;28;20176;-76
2021/09/22 04:28:21;;;;;;;14.63;9.77;;;9.90;99.80;;;;;;8300817;28;20184;-77
2021/09/22 04:32:21;;;;;;;17.70;10.43;;;9.90;99.80;;;;;;8299188;28;20627;-77
2021/09/22 04:36:23;;;;;;;19.97;11.70;;;9.90;99.70;;;;;;8299515;28;20423;-77
2021/09/22 04:40:28;;;;;;;14.67;10.17;;;9.90;99.70;;;;;;8299513;28;20219;-77
2021/09/22 04:44:29;;;;;;;18.33;11.47;;;9.90;99.80;;;;;;8297562;28;20457;-77
2021/09/22 04:48:31;;;;;;;15.97;10.40;;;9.90;99.90;;;;;;8281142;28;20939;-77
2021/09/22 04:52:31;;;;;;;21.27;10.37;;;9.90;99.90;;;;;;8295913;28;20177;-77
2021/09/22 04:56:32;;;;;;;22.70;10.93;;;9.90;99.90;;;;;;8296919;28;20513;-77
2021/09/22 05:00:33;;;;;;;18.30;10.33;;;9.90;99.90;;;;;;8294586;28;20211;-77
2021/09/22 05:04:33;;;;;;;21.43;10.97;;;9.90;99.90;;;;;;8297175;28;20243;-77
2021/09/22 05:08:34;;;;;;;18.73;12.07;;;9.90;99.90;;;;;;8277401;28;20298;-77
2021/09/22 05:12:35;;;;;;;20.07;10.67;;;9.90;99.90;;;;;;8302130;28;20218;-77
2021/09/22 05:16:35;;;;;;;22.67;12.13;;;10.00;99.90;;;;;;8300699;28;20192;-77
2021/09/22 05:20:36;;;;;;;21.97;11.60;;;10.00;99.90;;;;;;8307289;28;20200;-77
2021/09/22 05:24:36;;;;;;;17.97;12.13;;;10.00;99.80;;;;;;8273432;28;20193;-81
2021/09/22 05:28:37;;;;;;;16.87;11.17;;;10.00;99.80;;;;;;8275385;28;20271;-78
2021/09/22 05:32:38;;;;;;;17.77;12.20;;;10.00;99.90;;;;;;8305143;28;20215;-78
2021/09/22 05:36:39;;;;;;;21.13;12.63;;;10.00;99.90;;;;;;8319024;28;20183;-78
2021/09/22 05:40:39;;;;;;;15.53;10.30;;;10.00;99.90;;;;;;8314246;28;20216;-78
2021/09/22 05:44:40;;;;;;;17.00;11.20;;;10.10;99.90;;;;;;8286635;28;20465;-78
2021/09/22 05:48:41;;;;;;;17.40;10.87;;;10.10;99.90;;;;;;8303235;28;20180;-77
2021/09/22 05:52:41;;;;;;;15.27;9.90;;;10.10;99.90;;;;;;8312349;28;20177;-77
2021/09/22 05:56:45;;;;;;;17.37;10.30;;;10.20;99.90;;;;;;8332022;28;20182;-77
2021/09/22 06:00:48;;;;;;;24.00;9.80;;;10.20;99.90;;;;;;8305590;28;20211;-78
2021/09/22 06:04:49;;;;;;;19.73;12.10;;;10.30;99.90;;;;;;8344404;28;20466;-78
2021/09/22 06:08:49;;;;;;;17.83;11.23;;;10.40;99.90;;;;;;8324214;28;20449;-78
2021/09/22 06:12:50;;;;;;;13.83;9.17;;;10.50;99.90;;;;;;8316596;28;20165;-77
2021/09/22 06:16:50;;;;;;;12.97;8.30;;;10.60;99.90;;;;;;8299689;28;20200;-76
2021/09/22 06:20:51;;;;;;;14.20;8.90;;;10.70;99.90;;;;;;8331648;28;20282;-77
2021/09/22 06:24:52;;;;;;;13.87;8.73;;;10.80;99.90;;;;;;8345565;28;20184;-78
2021/09/22 06:28:53;;;;;;;15.73;9.17;;;10.90;99.90;;;;;;8338129;28;20620;-77
2021/09/22 06:32:54;;;;;;;13.87;8.20;;;11.10;99.90;;;;;;8314116;28;20440;-77
2021/09/22 06:36:54;;;;;;;11.23;7.77;;;11.30;99.90;;;;;;8289843;28;20494;-77
2021/09/22 06:40:56;;;;;;;14.97;8.07;;;11.40;99.90;;;;;;8301290;28;20296;-77
2021/09/22 06:44:56;;;;;;;12.10;7.40;;;11.60;99.90;;;;;;8300317;28;20629;-77
2021/09/22 06:48:57;;;;;;;13.90;7.70;;;11.80;99.90;;;;;;8296723;28;20446;-77
2021/09/22 06:52:58;;;;;;;18.60;8.63;;;12.00;99.90;;;;;;8298771;28;20282;-77
2021/09/22 06:56:59;;;;;;;12.00;8.40;;;12.20;99.90;;;;;;8300508;28;20640;-77
2021/09/22 07:01:00;;;;;;;12.47;8.37;;;12.40;99.90;;;;;;8278598;28;20220;-77
2021/09/22 07:05:00;;;;;;;11.67;8.27;;;12.60;99.90;;;;;;8298121;28;20466;-77
2021/09/22 07:09:01;;;;;;;17.30;12.37;;;12.90;99.90;;;;;;8297937;28;20514;-77
2021/09/22 07:13:02;;;;;;;18.90;9.70;;;13.30;99.30;;;;;;8311261;28;20184;-77
2021/09/22 07:17:03;;;;;;;19.80;10.33;;;13.60;98.60;;;;;;8307162;28;20180;-77
2021/09/22 07:21:05;;;;;;;14.90;11.63;;;14.00;98.00;;;;;;8298076;28;20839;-77
2021/09/22 07:25:06;;;;;;;18.93;10.70;;;14.40;97.30;;;;;;8301334;28;20531;-77
2021/09/22 07:29:07;;;;;;;17.10;10.63;;;14.70;96.30;;;;;;8315283;28;20450;-77
2021/09/22 07:33:08;;;;;;;16.33;10.30;;;15.00;95.90;;;;;;8311619;28;20454;-79
2021/09/22 07:37:10;;;;;;;12.93;9.27;;;15.40;95.60;;;;;;8311644;28;20435;-77
2021/09/22 07:41:11;;;;;;;21.63;11.43;;;15.70;95.40;;;;;;8302563;28;20250;-78
2021/09/22 07:45:13;;;;;;;18.87;10.43;;;15.90;95.00;;;;;;8303248;28;20440;-77
2021/09/22 07:49:14;;;;;;;18.87;12.90;;;16.10;94.90;;;;;;8301151;28;20513;-77
2021/09/22 07:53:16;;;;;;;20.60;11.27;;;16.40;94.50;;;;;;8282845;28;20441;-77
2021/09/22 07:57:18;;;;;;;26.13;11.43;;;16.70;94.00;;;;;;8299137;28;20815;-78
2021/09/22 08:01:18;;;;;;;19.03;11.87;;;17.10;94.10;;;;;;8303848;28;20429;-77
2021/09/22 08:05:19;;;;;;;15.27;11.27;;;17.30;94.00;;;;;;8268227;28;20471;-77
2021/09/22 08:09:20;;;;;;;15.17;10.50;;;17.50;93.90;;;;;;8270751;28;20176;-75
2021/09/22 08:13:21;;;;;;;22.00;12.40;;;17.70;93.70;;;;;;8279338;28;20438;-77
2021/09/22 08:17:21;;;;;;;21.97;13.77;;;18.00;93.30;;;;;;8275052;28;20226;-77
2021/09/22 08:21:22;;;;;;;22.40;15.80;;;18.10;92.50;;;;;;8268785;28;20489;-77
2021/09/22 08:25:23;;;;;;;34.33;16.93;;;18.20;92.20;;;;;;8272835;28;20204;-77
2021/09/22 08:29:24;;;;;;;24.07;16.37;;;18.20;91.90;;;;;;8318435;28;20631;-77
2021/09/22 08:33:25;;;;;;;27.40;16.80;;;18.30;91.20;;;;;;8329659;28;20442;-77
2021/09/22 08:37:25;;;;;;;29.80;16.43;;;18.40;91.40;;;;;;8311423;28;20238;-77
2021/09/22 08:41:26;;;;;;;21.50;13.50;;;18.40;91.00;;;;;;8335881;28;20222;-77
2021/09/22 08:45:30;;;;;;;21.20;13.27;;;18.50;90.60;;;;;;8300150;28;20220;-77
2021/09/22 08:49:30;;;;;;;23.53;13.83;;;18.60;90.50;;;;;;8284171;28;20272;-77
2021/09/22 08:53:31;;;;;;;21.67;13.77;;;18.80;89.70;;;;;;8281712;28;20432;-77
2021/09/22 08:57:32;;;;;;;28.00;14.63;;;19.10;89.20;;;;;;8299026;28;20700;-77
2021/09/22 09:01:34;;;;;;;19.57;12.50;;;19.50;88.70;;;;;;8287687;28;20533;-77
2021/09/22 09:05:34;;;;;;;24.13;13.83;;;19.80;88.00;;;;;;8264315;28;20467;-77
2021/09/22 09:09:39;;;;;;;21.40;12.80;;;20.10;86.90;;;;;;8267873;28;20463;-77
2021/09/22 09:13:48;;;;;;;26.60;14.73;;;20.30;86.20;;;;;;8265038;28;20446;-77
2021/09/22 09:17:49;;;;;;;18.97;13.50;;;20.30;85.20;;;;;;8265818;28;20533;-77
2021/09/22 09:22:05;;;;;;;21.93;12.10;;;20.40;84.30;;;;;;8268844;28;20444;-77
2021/09/22 09:26:05;;;;;;;24.20;12.03;;;20.50;84.30;;;;;;8276380;28;20451;-77
2021/09/22 09:30:18;;;;;;;27.87;11.50;;;20.50;84.20;;;;;;8264855;28;20451;-76
2021/09/22 09:34:20;;;;;;;17.50;11.20;;;20.50;81.30;;;;;;8271497;28;20907;-77
2021/09/22 09:38:20;;;;;;;15.07;10.20;;;20.90;80.10;;;;;;8302923;28;20434;-78
2021/09/22 09:42:27;;;;;;;16.20;10.80;;;21.20;79.30;;;;;;8300689;28;20983;-77
2021/09/22 09:46:29;;;;;;;13.60;10.30;;;21.40;78.50;;;;;;8287971;28;20208;-78
2021/09/22 09:50:35;;;;;;;15.73;10.43;;;21.40;77.50;;;;;;8282609;28;20481;-77
2021/09/22 09:54:36;;;;;;;17.93;12.03;;;21.50;77.40;;;;;;8297428;28;20435;-78
2021/09/22 09:58:43;;;;;;;13.90;11.10;;;21.70;76.90;;;;;;8299393;28;20480;-77
2021/09/22 10:02:43;;;;;;;21.03;12.10;;;21.90;75.40;;;;;;8298790;28;20246;-77
2021/09/22 10:06:44;;;;;;;16.80;10.60;;;22.20;75.80;;;;;;8291494;28;20454;-77
2021/09/22 10:10:48;;;;;;;17.50;11.30;;;22.50;75.20;;;;;;8301001;28;20611;-77
2021/09/22 10:14:49;;;;;;;22.47;11.57;;;22.90;73.50;;;;;;8286085;28;20436;-77
2021/09/22 10:18:50;;;;;;;25.20;12.20;;;23.30;72.90;;;;;;8267838;28;20471;-77
2021/09/22 10:22:52;;;;;;;16.27;10.73;;;23.70;70.90;;;;;;8308050;28;20446;-77
2021/09/22 10:26:54;;;;;;;15.37;10.90;;;24.10;71.10;;;;;;8317834;28;21029;-77
2021/09/22 10:30:54;;;;;;;19.13;12.47;;;24.30;68.50;;;;;;8327575;28;20442;-76
2021/09/22 10:34:55;;;;;;;18.80;12.50;;;24.20;69.10;;;;;;8315181;28;20502;-78
2021/09/22 10:38:55;;;;;;;16.20;10.63;;;24.20;68.30;;;;;;8302652;28;20271;-77
2021/09/22 10:43:23;;;;;;;19.27;12.30;;;24.30;69.60;;;;;;8309916;28;20263;-76
2021/09/22 10:47:26;;;;;;;18.70;11.93;;;24.60;68.10;;;;;;8342224;28;20167;-77
2021/09/22 10:51:36;;;;;;;20.90;13.70;;;24.30;68.10;;;;;;8340711;28;20429;-77
2021/09/22 10:56:08;;;;;;;14.63;11.50;;;24.40;67.10;;;;;;8343396;28;20441;-77
2021/09/22 11:00:13;;;;;;;22.03;11.90;;;24.50;67.40;;;;;;8327459;28;20486;-78
2021/09/22 11:04:14;;;;;;;20.50;12.60;;;24.40;66.80;;;;;;8331620;28;20997;-77
2021/09/22 11:08:15;;;;;;;21.13;14.37;;;24.30;67.30;;;;;;8317915;28;20419;-77
2021/09/22 11:12:16;;;;;;;21.37;13.10;;;24.50;67.90;;;;;;8316137;28;20192;-77
2021/09/22 11:16:18;;;;;;;23.43;12.07;;;24.50;66.50;;;;;;8325016;28;20458;-78
2021/09/22 11:20:19;;;;;;;16.80;11.60;;;24.60;67.10;;;;;;8323943;28;20522;-78
2021/09/22 11:24:22;;;;;;;17.67;12.10;;;24.80;66.00;;;;;;8308719;28;20426;-79
2021/09/22 11:28:23;;;;;;;16.30;10.53;;;25.00;64.80;;;;;;8323212;28;20187;-78
2021/09/22 11:32:28;;;;;;;14.13;10.50;;;24.80;65.80;;;;;;8330468;28;20416;-77
2021/09/22 11:36:28;;;;;;;16.60;10.67;;;24.90;66.10;;;;;;8335358;28;20259;-77
2021/09/22 11:40:32;;;;;;;12.60;9.27;;;25.10;65.30;;;;;;8331691;28;20956;-76
2021/09/22 11:44:34;;;;;;;18.10;10.57;;;25.30;65.40;;;;;;8320627;28;20177;-77
2021/09/22 11:48:38;;;;;;;15.50;10.40;;;25.40;65.00;;;;;;8321511;28;20471;-77
2021/09/22 11:52:47;;;;;;;14.60;9.33;;;25.40;64.80;;;;;;8311921;28;20827;-77
2021/09/22 11:57:04;;;;;;;18.80;12.60;;;25.20;64.30;;;;;;8313481;28;20445;-80
2021/09/22 12:01:07;;;;;;;14.43;9.60;;;25.00;65.10;;;;;;8280992;28;20547;-81
2021/09/22 12:05:14;;;;;;;16.63;10.20;;;25.10;64.90;;;;;;8276861;28;20476;-77
2021/09/22 12:09:16;;;;;;;15.17;9.00;;;24.90;64.40;;;;;;8306835;28;20454;-76
2021/09/22 12:13:17;;;;;;;14.83;10.23;;;24.80;65.30;;;;;;8308445;28;20463;-78
2021/09/22 12:17:20;;;;;;;12.17;9.73;;;24.80;64.80;;;;;;8316744;28;20435;-78
2021/09/22 12:21:30;;;;;;;11.20;7.60;;;24.90;65.10;;;;;;8304929;28;20206;-78
2021/09/22 12:25:33;;;;;;;11.57;7.77;;;25.20;64.90;;;;;;8306055;28;20493;-77
2021/09/22 12:29:34;;;;;;;13.73;8.63;;;25.30;63.80;;;;;;8266594;28;20443;-77
2021/09/22 12:33:34;;;;;;;13.20;8.27;;;25.10;63.50;;;;;;8301884;28;20477;-77
2021/09/22 12:37:35;;;;;;;12.27;6.70;;;25.00;64.40;;;;;;8327974;28;20187;-78
2021/09/22 12:41:36;;;;;;;10.80;7.60;;;25.10;64.20;;;;;;8299454;28;20557;-78
2021/09/22 12:45:36;;;;;;;8.47;6.93;;;25.20;63.30;;;;;;8296505;28;20238;-78
2021/09/22 12:49:37;;;;;;;8.53;6.80;;;25.20;64.20;;;;;;8298163;28;20223;-77
2021/09/22 12:53:38;;;;;;;12.47;7.13;;;25.20;63.80;;;;;;8297988;28;20188;-77
2021/09/22 12:57:50;;;;;;;10.43;7.63;;;25.10;63.70;;;;;;8311799;28;20535;-77
2021/09/22 13:01:52;;;;;;;8.90;5.70;;;25.00;63.90;;;;;;8303628;28;20687;-76
2021/09/22 13:06:06;;;;;;;9.13;6.13;;;25.00;63.30;;;;;;8307578;28;21160;-77
2021/09/22 13:10:07;;;;;;;9.50;7.90;;;25.00;64.70;;;;;;8327018;28;20540;-77
2021/09/22 13:14:19;;;;;;;10.23;6.40;;;25.00;63.20;;;;;;8308447;28;20510;-77
2021/09/22 13:18:23;;;;;;;7.70;5.97;;;24.90;63.20;;;;;;8308120;28;20467;-77
2021/09/22 13:22:24;;;;;;;9.73;5.60;;;24.70;63.80;;;;;;8284351;28;20471;-77
2021/09/22 13:26:25;;;;;;;8.10;6.00;;;24.70;64.30;;;;;;8296813;28;20431;-76
2021/09/22 13:30:26;;;;;;;4.70;4.03;;;24.90;63.80;;;;;;8283218;28;20192;-76
2021/09/22 13:34:30;;;;;;;9.53;6.33;;;25.00;63.70;;;;;;8267933;28;20946;-77
2021/09/22 13:38:31;;;;;;;13.23;5.30;;;25.10;63.30;;;;;;8305080;28;20232;-77
2021/09/22 13:42:31;;;;;;;6.63;5.03;;;25.30;64.50;;;;;;8280940;28;20522;-77
2021/09/22 13:46:34;;;;;;;8.50;6.30;;;25.60;63.30;;;;;;8275579;28;20462;-77
2021/09/22 13:50:35;;;;;;;7.50;6.17;;;25.60;62.40;;;;;;8277889;28;20265;-77
2021/09/22 13:54:35;;;;;;;4.40;4.00;;;25.70;62.60;;;;;;8296068;28;20427;-78
2021/09/22 13:58:36;;;;;;;9.30;4.83;;;25.90;62.80;;;;;;8279400;28;20354;-77
2021/09/22 14:02:37;;;;;;;10.70;4.57;;;26.00;62.30;;;;;;8275283;28;20225;-77
2021/09/22 14:06:38;;;;;;;8.10;4.37;;;25.90;61.70;;;;;;8273153;28;20185;-77
2021/09/22 14:10:39;;;;;;;11.23;4.40;;;25.70;62.10;;;;;;8288245;28;20544;-77
2021/09/22 14:14:39;;;;;;;4.60;3.40;;;25.60;62.60;;;;;;8300778;28;20181;-77
2021/09/22 14:18:43;;;;;;;5.67;4.80;;;25.60;63.50;;;;;;8292733;28;20204;-77
2021/09/22 14:22:44;;;;;;;3.23;2.93;;;25.50;62.70;;;;;;8281352;28;20644;-77
2021/09/22 14:26:45;;;;;;;4.03;3.57;;;25.00;63.30;;;;;;8313297;28;20529;-77
2021/09/22 14:30:46;;;;;;;5.13;3.43;;;24.80;64.00;;;;;;8321615;28;21116;-77
2021/09/22 14:34:48;;;;;;;5.23;3.63;;;24.60;64.10;;;;;;8267573;28;20793;-78
2021/09/22 14:38:49;;;;;;;4.20;3.80;;;24.40;65.00;;;;;;8278360;28;20476;-77
2021/09/22 14:42:50;;;;;;;4.47;3.90;;;24.40;65.60;;;;;;8303065;28;20450;-77
2021/09/22 14:46:51;;;;;;;4.60;3.43;;;24.50;65.50;;;;;;8311024;28;20181;-77
2021/09/22 14:50:51;;;;;;;4.70;3.30;;;24.50;65.20;;;;;;8296798;28;20435;-79
2021/09/22 14:54:53;;;;;;;4.77;3.93;;;24.30;65.20;;;;;;8284720;28;20185;-78
2021/09/22 14:58:53;;;;;;;6.50;4.10;;;24.30;66.10;;;;;;8302146;28;20467;-79
2021/09/22 15:02:54;;;;;;;5.33;3.73;;;24.30;65.80;;;;;;8336653;28;20235;-78
2021/09/22 15:06:55;;;;;;;7.10;4.10;;;24.40;66.20;;;;;;8327176;28;20581;-77
2021/09/22 15:10:56;;;;;;;4.40;4.10;;;24.50;65.90;;;;;;8292963;28;20447;-77
2021/09/22 15:14:57;;;;;;;11.90;4.80;;;24.50;66.00;;;;;;8291911;28;20525;-77
2021/09/22 15:18:58;;;;;;;4.53;4.23;;;24.30;66.70;;;;;;8283626;28;20232;-77
2021/09/22 15:22:58;;;;;;;6.00;4.10;;;24.30;65.40;;;;;;8272194;28;20712;-77
2021/09/22 15:26:59;;;;;;;5.47;4.03;;;24.10;66.70;;;;;;8293092;28;20648;-78
2021/09/22 15:31:00;;;;;;;6.60;3.93;;;24.00;66.90;;;;;;8300153;28;20188;-78
2021/09/22 15:35:01;;;;;;;7.90;4.10;;;24.00;67.60;;;;;;8310158;28;20263;-78
2021/09/22 15:39:02;;;;;;;10.07;4.40;;;24.00;66.60;;;;;;8299026;28;20243;-77
2021/09/22 15:43:04;;;;;;;5.80;4.10;;;24.00;66.80;;;;;;8299002;28;20427;-78
2021/09/22 15:47:05;;;;;;;8.17;5.90;;;23.90;67.30;;;;;;8291427;28;20909;-77
2021/09/22 15:51:06;;;;;;;7.20;3.83;;;23.70;67.00;;;;;;8311201;28;20896;-78
2021/09/22 15:55:07;;;;;;;5.20;4.63;;;23.70;67.00;;;;;;8316289;28;20418;-78
2021/09/22 15:59:08;;;;;;;10.13;4.13;;;23.60;67.60;;;;;;8305476;28;20223;-79
2021/09/22 16:03:08;;;;;;;3.90;3.03;;;23.60;68.80;;;;;;8332482;28;20835;-78
2021/09/22 16:07:09;;;;;;;6.40;4.30;;;23.40;68.70;;;;;;8300329;28;20188;-77
2021/09/22 16:11:10;;;;;;;5.83;3.63;;;23.20;68.20;;;;;;8308371;28;20203;-77
2021/09/22 16:15:12;;;;;;;6.10;4.57;;;22.90;69.10;;;;;;8285352;28;20184;-76
2021/09/22 16:19:13;;;;;;;5.50;4.40;;;22.70;69.00;;;;;;8303174;28;20223;-78
2021/09/22 16:23:14;;;;;;;6.93;3.50;;;22.50;70.00;;;;;;8290564;28;20458;-76
2021/09/22 16:27:15;;;;;;;6.27;3.17;;;22.30;71.20;;;;;;8307539;28;20644;-78
2021/09/22 16:31:18;;;;;;;5.37;4.00;;;22.20;72.00;;;;;;8286220;28;20180;-77
2021/09/22 16:35:18;;;;;;;5.90;3.90;;;22.10;72.00;;;;;;8305187;28;20460;-77
2021/09/22 16:39:22;;;;;;;5.70;3.97;;;21.90;72.30;;;;;;8286437;28;20444;-77
2021/09/22 16:43:23;;;;;;;4.20;3.60;;;21.80;73.30;;;;;;8300150;28;20232;-76
2021/09/22 16:47:24;;;;;;;5.90;3.90;;;21.60;73.90;;;;;;8307846;28;20450;-77
2021/09/22 16:51:25;;;;;;;5.20;4.07;;;21.40;74.60;;;;;;8306702;28;20426;-76
2021/09/22 16:55:26;;;;;;;6.07;4.17;;;21.20;76.00;;;;;;8299645;28;20175;-75
2021/09/22 16:59:27;;;;;;;6.63;5.13;;;20.90;76.90;;;;;;8303586;28;20453;-75
2021/09/22 17:03:27;;;;;;;8.13;5.43;;;20.70;77.30;;;;;;8304085;28;20230;-75
2021/09/22 17:07:28;;;;;;;5.00;4.13;;;20.50;79.00;;;;;;8303765;28;20193;-74
2021/09/22 17:11:29;;;;;;;6.07;4.40;;;20.20;79.50;;;;;;8310206;28;20181;-74
2021/09/22 17:15:32;;;;;;;9.73;4.80;;;20.00;81.10;;;;;;8308706;28;20512;-73
2021/09/22 17:19:32;;;;;;;7.60;5.20;;;19.80;82.10;;;;;;8307134;28;20208;-75
2021/09/22 17:23:34;;;;;;;11.03;4.90;;;19.50;83.00;;;;;;8306730;28;20499;-75
2021/09/22 17:27:36;;;;;;;6.13;5.53;;;19.30;84.40;;;;;;8306681;28;20176;-74
2021/09/22 17:31:36;;;;;;;6.73;5.67;;;19.10;84.70;;;;;;8305733;28;20748;-74
2021/09/22 17:35:37;;;;;;;6.90;6.20;;;18.90;86.00;;;;;;8303827;28;20466;-74
2021/09/22 17:39:38;;;;;;;18.60;7.50;;;18.70;86.80;;;;;;8304606;28;20216;-75
2021/09/22 17:43:38;;;;;;;7.73;6.77;;;18.50;88.20;;;;;;8305064;28;20177;-74
2021/09/22 17:47:39;;;;;;;13.03;7.73;;;18.30;89.80;;;;;;8303990;28;20434;-75
2021/09/22 17:51:41;;;;;;;13.70;8.60;;;18.20;90.10;;;;;;8302874;28;20415;-75
2021/09/22 17:55:42;;;;;;;13.93;7.40;;;18.10;90.50;;;;;;8304404;28;20443;-75
2021/09/22 17:59:43;;;;;;;13.57;7.77;;;18.00;90.90;;;;;;8305219;28;20468;-74
2021/09/22 18:03:44;;;;;;;12.63;8.90;;;17.90;91.20;;;;;;8304642;28;20706;-75
2021/09/22 18:07:45;;;;;;;12.77;8.73;;;17.70;91.70;;;;;;8305883;28;20418;-75
2021/09/22 18:11:45;;;;;;;14.03;7.73;;;17.60;92.00;;;;;;8305132;28;20197;-75
2021/09/22 18:15:46;;;;;;;14.13;8.77;;;17.50;92.10;;;;;;8304676;28;20230;-76
2021/09/22 18:19:47;;;;;;;12.80;6.80;;;17.30;92.20;;;;;;8302418;28;20202;-75
2021/09/22 18:23:48;;;;;;;13.73;8.70;;;17.30;92.30;;;;;;8305431;28;20434;-76
2021/09/22 18:27:48;;;;;;;10.87;7.87;;;17.20;92.50;;;;;;8303162;28;20637;-76
2021/09/22 18:31:49;;;;;;;14.43;8.43;;;17.10;92.50;;;;;;8303183;28;20172;-75
2021/09/22 18:35:52;;;;;;;18.73;9.57;;;17.00;92.70;;;;;;8301074;28;20178;-74
2021/09/22 18:39:52;;;;;;;15.70;10.43;;;16.90;93.10;;;;;;8284643;28;20476;-75
2021/09/22 18:43:53;;;;;;;16.00;10.40;;;16.80;93.20;;;;;;8286216;28;20819;-74
2021/09/22 18:47:55;;;;;;;16.97;10.43;;;16.60;93.40;;;;;;8284906;28;20201;-75
2021/09/22 18:51:56;;;;;;;17.10;11.57;;;16.50;93.70;;;;;;8283942;28;20643;-75
2021/09/22 18:55:56;;;;;;;22.40;12.50;;;16.40;94.10;;;;;;8287222;28;20451;-77
2021/09/22 18:59:58;;;;;;;18.13;11.80;;;16.30;94.30;;;;;;8289368;28;20468;-74
2021/09/22 19:03:59;;;;;;;16.33;11.73;;;16.10;94.50;;;;;;8287522;28;20646;-75
2021/09/22 19:07:59;;;;;;;14.13;10.73;;;16.00;95.10;;;;;;8291189;28;20449;-75
2021/09/22 19:12:00;;;;;;;17.10;9.67;;;15.90;95.10;;;;;;8283735;28;20303;-75
2021/09/22 19:16:00;;;;;;;24.20;12.20;;;15.80;95.50;;;;;;8292819;28;20185;-75
2021/09/22 19:20:01;;;;;;;13.80;8.90;;;15.60;95.70;;;;;;8287693;28;20209;-76
2021/09/22 19:24:02;;;;;;;17.47;10.03;;;15.50;96.10;;;;;;8288484;28;20184;-76
2021/09/22 19:28:03;;;;;;;16.30;10.30;;;15.40;96.20;;;;;;8284436;28;20221;-75
2021/09/22 19:32:05;;;;;;;15.97;9.63;;;15.30;96.40;;;;;;8288792;28;20286;-77
2021/09/22 19:36:07;;;;;;;19.47;10.20;;;15.20;96.60;;;;;;8290090;28;20435;-74
2021/09/22 19:40:10;;;;;;;14.87;10.33;;;15.10;96.70;;;;;;8286572;28;20815;-76
2021/09/22 19:44:10;;;;;;;22.33;12.90;;;15.00;96.80;;;;;;8290381;28;20443;-76
2021/09/22 19:48:11;;;;;;;17.90;12.57;;;14.90;97.10;;;;;;8289740;28;20447;-77
2021/09/22 19:52:12;;;;;;;20.97;12.93;;;14.80;97.20;;;;;;8283412;28;20184;-77
2021/09/22 19:56:13;;;;;;;15.00;11.93;;;14.70;97.10;;;;;;8268431;28;20272;-75
2021/09/22 20:00:14;;;;;;;18.00;12.33;;;14.70;97.30;;;;;;8283468;28;20470;-78
2021/09/22 20:04:15;;;;;;;17.27;11.70;;;14.70;97.30;;;;;;8263517;28;20255;-75
2021/09/22 20:08:16;;;;;;;17.20;12.53;;;14.60;97.20;;;;;;8286449;28;20443;-77
2021/09/22 20:12:17;;;;;;;22.90;12.67;;;14.60;97.40;;;;;;8282032;28;20439;-76
2021/09/22 20:16:18;;;;;;;19.00;11.47;;;14.50;97.50;;;;;;8283384;28;20275;-75
2021/09/22 20:20:21;;;;;;;18.20;11.40;;;14.50;97.50;;;;;;8284867;28;20298;-75
2021/09/22 20:24:24;;;;;;;19.80;11.60;;;14.50;97.50;;;;;;8292571;28;20503;-75
2021/09/22 20:28:25;;;;;;;13.50;11.13;;;14.60;97.50;;;;;;8290932;28;20458;-75
2021/09/22 20:32:27;;;;;;;26.60;10.77;;;14.60;97.50;;;;;;8285116;28;20452;-77
2021/09/22 20:36:28;;;;;;;13.47;11.47;;;14.50;97.60;;;;;;8281002;28;20882;-74